NCAR-RAP Real-Time Weather Data

Output produced by METARs form (20 February 2019  17:15 UTC)
found at http://weather.rap.ucar.edu/surface/
 
RJKA 201000Z VRB03KT 9999 FEW020 BKN025 BKN045 19/14 Q1020
RJKA 200900Z 35003KT 290V020 9999 FEW020 SCT025 BKN045 19/15 Q1020
RJKA 200800Z 34005KT 290V030 9999 FEW020 BKN060 BKN090 19/15 Q1020
RJKA 200700Z 33005KT 290V020 9999 FEW020 SCT025 BKN060 20/15 Q1020
RJKA 200600Z 32008KT 290V360 9999 FEW025 BKN060 BKN070 20/15 Q1020
RJKA 200500Z 32010KT 300V360 9999 FEW025 SCT080 BKN120 21/15 Q1020
RJKA 200400Z 33008KT 310V010 9999 FEW025 BKN030 21/15 Q1021
RJKA 200300Z 32009KT 290V350 9999 FEW020 BKN025 21/16 Q1022
RJKA 200200Z 32009KT 9999 FEW020 SCT025 BKN060 21/16 Q1022
RJKA 200100Z 32007KT 280V350 9999 FEW020 BKN025 20/15 Q1022
RJKA 200000Z 32005KT 270V360 9999 FEW020 SCT025 20/16 Q1022
RJKA 192300Z VRB02KT 9999 FEW020 SCT025 19/15 Q1021
RJKA 192200Z 31003KT 220V020 9999 FEW020 BKN070 BKN150 19/15 Q1021
RJKA 192130Z VRB01KT 9999 FEW020 BKN070 BKN150 18/15 Q1020
RJKA 191000Z 32006KT 270V010 9999 FEW012 BKN020 BKN130 20/18 Q1018
RJKA 190900Z 32006KT 290V360 9999 FEW010 SCT015 BKN130 21/19 Q1017
RJKA 190800Z 30008KT 280V350 9999 -SHRA FEW010 SCT015 BKN025 21/20 Q1016
RJKA 190700Z 23011KT 6000 -SHRA FEW010 BKN020 BKN030 22/21 Q1016
RJKA 190600Z 23017KT 9999 -SHRA FEW008 SCT015 BKN030 22/21 Q1016
RJKA 190544Z 23015KT 4000 R03/0900VP2000D -SHRA FEW008 BKN010 BKN020 22/21 Q1016 RMK 1CU008 5CU010 7CU020 A3001
RJKA 190539Z 23019KT 1500 R03/1000VP2000N +SHRA FEW008 BKN010 BKN020 22/21 Q1016 RMK 1CU008 5CU010 7CU020 A3001 RI++
RJKA 190534Z 23021KT 2000 R03/1400VP2000N SHRA FEW010 BKN015 BKN020 22/21 Q1016 RMK 1CU010 5CU015 7CU020 A3002
RJKA 190526Z 23019G29KT 1500 R03/1500VP2000N +SHRA FEW009 BKN012 BKN020 22/21 Q1016 RMK 1CU009 5CU012 7CU020 A3001 RI++
RJKA 190500Z 22014KT 8000 -SHRA FEW015 BKN025 BKN070 22/21 Q1016
RJKA 190439Z 23019KT 5000 -SHRA FEW012 SCT015 BKN030 22/21 Q1016 RMK 1CU012 3CU015 7CU030 A3003
RJKA 190427Z 22021KT 3000 -SHRA FEW010 BKN015 BKN020 22/21 Q1017 RMK 1CU010 5CU015 7CU020 A3004
RJKA 190414Z 21024KT 2500 SHRA FEW008 BKN012 BKN020 22/21 Q1017 RMK 1CU008 5CU012 7CU020 A3004
RJKA 190410Z 21025KT 4000 -SHRA FEW008 BKN012 BKN020 22/21 Q1017 RMK 1CU008 5CU012 7CU020 A3004
RJKA 190400Z 21027KT 5000 -SHRA FEW008 SCT012 BKN020 22/21 Q1017
RJKA 190300Z 20023KT 9999 -SHRA FEW010 BKN013 BKN020 23/21 Q1017
RJKA 190200Z 20023KT 9999 FEW010 BKN015 BKN035 24/20 Q1018
RJKA 190100Z 19022KT 9999 FEW012 BKN015 BKN020 23/20 Q1018
RJKA 190000Z 19024KT 9999 FEW013 BKN015 BKN050 23/20 Q1018
RJKA 182300Z 19023KT 9999 FEW013 SCT015 BKN050 23/20 Q1018
RJKA 182200Z 18020KT 9999 FEW013 BKN015 BKN020 22/20 Q1018
RJKA 182130Z 18023KT 9999 FEW013 BKN015 BKN020 22/20 Q1017
RJKA 181000Z 12011KT 9999 FEW020 SCT025 BKN/// 19/14 Q1021
RJKA 180900Z 12010KT 9999 FEW025 SCT030 BKN/// 18/13 Q1021
RJKA 180800Z 14009KT 9999 FEW025 SCT170 BKN/// 19/13 Q1021
RJKA 180700Z 11005KT 070V140 9999 FEW025 BKN/// 19/12 Q1021
RJKA 180600Z 10007KT 9999 FEW025 SCT030 BKN040 18/12 Q1021